createdAt,value
2019-04-28T00:00:36.851Z,11.40
2019-04-28T00:03:10.863Z,11.50
2019-04-28T00:05:43.726Z,11.40
2019-04-28T00:08:16.838Z,11.40
2019-04-28T00:10:49.448Z,11.40
2019-04-28T00:13:22.104Z,11.40
2019-04-28T00:15:56.391Z,11.40
2019-04-28T00:18:29.315Z,11.30
2019-04-28T00:21:31.824Z,11.30
2019-04-28T00:24:32.967Z,11.30
2019-04-28T00:27:08.490Z,11.30
2019-04-28T00:29:46.027Z,11.20
2019-04-28T00:32:16.009Z,11.20
2019-04-28T00:34:48.616Z,11.20
2019-04-28T00:37:32.750Z,11.20
2019-04-28T00:40:07.794Z,11.20
2019-04-28T00:42:41.370Z,11.10
2019-04-28T00:45:15.081Z,11.10
2019-04-28T00:47:47.410Z,11.10
2019-04-28T00:50:21.653Z,11.10
2019-04-28T00:52:54.517Z,11.10
2019-04-28T00:55:27.390Z,11.10
2019-04-28T00:58:00.981Z,11.10
2019-04-28T01:00:35.969Z,11.20
2019-04-28T01:03:11.721Z,11.10
2019-04-28T01:05:44.360Z,11.10
2019-04-28T01:08:17.158Z,11.10
2019-04-28T01:10:50.826Z,11.10
2019-04-28T01:13:23.831Z,11.10
2019-04-28T01:16:03.185Z,11.10
2019-04-28T01:18:52.786Z,11.10
2019-04-28T01:21:30.012Z,11.10
2019-04-28T01:24:03.694Z,11.10
2019-04-28T01:26:35.995Z,11.10
2019-04-28T01:29:09.591Z,11.10
2019-04-28T01:31:49.455Z,11.00
2019-04-28T01:34:22.838Z,11.00
2019-04-28T01:36:55.354Z,11.00
2019-04-28T01:39:29.698Z,11.00
2019-04-28T01:42:03.403Z,10.90
2019-04-28T01:44:36.314Z,10.90
2019-04-28T01:47:10.599Z,10.90
2019-04-28T01:49:43.736Z,10.90
2019-04-28T01:52:17.924Z,10.90
2019-04-28T01:54:52.082Z,11.00
2019-04-28T01:57:24.982Z,11.00
2019-04-28T01:59:59.843Z,10.90
2019-04-28T02:02:34.054Z,10.90
2019-04-28T02:05:07.299Z,10.90
2019-04-28T02:07:40.798Z,10.90
2019-04-28T02:10:14.656Z,10.80
2019-04-28T02:12:47.933Z,10.80
2019-04-28T02:15:20.651Z,10.80
2019-04-28T02:17:53.428Z,10.80
2019-04-28T02:20:26.282Z,10.80
2019-04-28T02:23:04.325Z,10.80
2019-04-28T02:25:37.516Z,10.80
2019-04-28T02:28:11.851Z,10.80
2019-04-28T02:30:49.414Z,10.80
2019-04-28T02:33:21.182Z,10.80
2019-04-28T02:35:54.288Z,10.80
2019-04-28T02:38:27.237Z,10.80
2019-04-28T02:41:00.676Z,10.80
2019-04-28T02:43:34.131Z,10.80
2019-04-28T02:46:10.425Z,10.80
2019-04-28T02:48:43.252Z,10.80
2019-04-28T02:51:30.736Z,10.80
2019-04-28T02:54:04.835Z,10.70
2019-04-28T02:56:43.403Z,10.70
2019-04-28T02:59:12.551Z,10.70
2019-04-28T03:01:46.415Z,10.70
2019-04-28T03:04:21.488Z,10.70
2019-04-28T03:06:55.357Z,10.70
2019-04-28T03:09:30.408Z,10.70
2019-04-28T03:12:02.401Z,10.60
2019-04-28T03:14:35.181Z,10.70
2019-04-28T03:17:10.718Z,10.60
2019-04-28T03:19:42.457Z,10.60
2019-04-28T03:22:15.046Z,10.60
2019-04-28T03:24:51.072Z,10.60
2019-04-28T03:27:31.192Z,10.60
2019-04-28T03:30:33.329Z,10.60
2019-04-28T03:33:11.819Z,10.60
2019-04-28T03:35:43.535Z,10.70
2019-04-28T03:38:14.158Z,10.70
2019-04-28T03:40:46.880Z,10.70
2019-04-28T03:43:21.170Z,10.70
2019-04-28T03:46:02.824Z,10.70
2019-04-28T03:48:34.021Z,10.70
2019-04-28T03:51:06.454Z,10.60
2019-04-28T03:53:40.943Z,10.60
2019-04-28T03:56:14.852Z,10.60
2019-04-28T03:58:50.260Z,10.60
2019-04-28T04:01:22.879Z,10.60
2019-04-28T04:03:55.890Z,10.60
2019-04-28T04:06:31.127Z,10.60
2019-04-28T04:09:04.337Z,10.60
2019-04-28T04:11:43.685Z,10.60
2019-04-28T04:14:25.305Z,10.60
2019-04-28T04:17:17.808Z,10.60
2019-04-28T04:19:50.882Z,10.50
2019-04-28T04:22:23.461Z,10.50
2019-04-28T04:24:56.018Z,10.50
2019-04-28T04:27:30.903Z,10.50
2019-04-28T04:30:03.482Z,10.50
2019-04-28T04:32:36.041Z,10.50
2019-04-28T04:35:10.499Z,10.40
2019-04-28T04:37:43.339Z,10.40
2019-04-28T04:40:16.329Z,10.40
2019-04-28T04:42:50.179Z,10.40
2019-04-28T04:45:23.145Z,10.40
2019-04-28T04:47:55.833Z,10.30
2019-04-28T04:50:31.074Z,10.30
2019-04-28T04:53:03.256Z,10.30
2019-04-28T04:55:36.053Z,10.30
2019-04-28T04:58:10.596Z,10.30
2019-04-28T05:00:56.150Z,10.30
2019-04-28T05:03:31.621Z,10.30
2019-04-28T05:06:23.465Z,10.30
2019-04-28T05:08:57.107Z,10.30
2019-04-28T05:11:30.036Z,10.30
2019-04-28T05:14:03.215Z,10.20
2019-04-28T05:16:36.166Z,10.20
2019-04-28T05:19:10.874Z,10.20
2019-04-28T05:21:44.953Z,10.20
2019-04-28T05:24:25.116Z,10.20
2019-04-28T05:26:59.435Z,10.20
2019-04-28T05:29:31.611Z,10.20
2019-04-28T05:32:04.267Z,10.10
2019-04-28T05:34:39.784Z,10.10
2019-04-28T05:37:11.523Z,10.10
2019-04-28T05:39:43.986Z,10.00
2019-04-28T05:42:16.898Z,10.00
2019-04-28T05:44:49.726Z,10.00
2019-04-28T05:47:22.476Z,10.00
2019-04-28T05:50:12.141Z,9.90
2019-04-28T05:53:03.866Z,9.90
2019-04-28T05:55:55.803Z,9.90
2019-04-28T05:58:34.525Z,9.90
2019-04-28T06:01:16.293Z,9.90
2019-04-28T06:03:49.702Z,9.90
2019-04-28T06:06:25.054Z,9.90
2019-04-28T06:09:14.427Z,9.90
2019-04-28T06:11:47.177Z,9.80
2019-04-28T06:14:19.876Z,9.80
2019-04-28T06:16:52.425Z,9.70
2019-04-28T06:19:25.094Z,9.70
2019-04-28T06:21:57.561Z,9.70
2019-04-28T06:24:30.157Z,9.70
2019-04-28T06:27:02.592Z,9.70
2019-04-28T06:29:35.203Z,9.60
2019-04-28T06:32:08.260Z,9.70
2019-04-28T06:34:41.327Z,9.60
2019-04-28T06:37:14.211Z,9.60
2019-04-28T06:39:47.427Z,9.60
2019-04-28T06:42:20.242Z,9.60
2019-04-28T06:44:54.281Z,9.50
2019-04-28T06:47:27.280Z,9.50
2019-04-28T06:50:00.120Z,9.50
2019-04-28T06:52:32.826Z,9.50
2019-04-28T06:55:06.145Z,9.50
2019-04-28T06:57:39.233Z,9.60
2019-04-28T07:00:12.194Z,9.60
2019-04-28T07:02:44.951Z,9.60
2019-04-28T07:05:18.685Z,9.60
2019-04-28T07:07:52.407Z,9.70
2019-04-28T07:10:26.293Z,9.70
2019-04-28T07:12:59.287Z,9.70
2019-04-28T07:15:32.116Z,9.70
2019-04-28T07:18:05.256Z,9.70
2019-04-28T07:20:44.056Z,9.60
2019-04-28T07:23:16.540Z,9.50
2019-04-28T07:25:49.339Z,9.40
2019-04-28T07:28:25.438Z,9.40
2019-04-28T07:30:58.526Z,9.30
2019-04-28T07:33:36.130Z,9.20
2019-04-28T07:36:05.991Z,9.20
2019-04-28T07:38:38.680Z,9.20
2019-04-28T07:41:13.357Z,9.20
2019-04-28T07:43:45.882Z,9.20
2019-04-28T07:46:18.452Z,9.20
2019-04-28T07:48:52.484Z,9.20
2019-04-28T07:51:34.094Z,9.20
2019-04-28T07:54:09.930Z,9.20
2019-04-28T07:56:42.756Z,9.20
2019-04-28T07:59:16.295Z,9.20
2019-04-28T08:01:48.939Z,9.20
2019-04-28T08:04:23.587Z,9.20
2019-04-28T08:06:58.368Z,9.20
2019-04-28T08:09:31.047Z,9.20
2019-04-28T08:12:03.869Z,9.20
2019-04-28T08:14:36.835Z,9.30
2019-04-28T08:17:10.164Z,9.30
2019-04-28T08:19:42.737Z,9.40
2019-04-28T08:22:17.109Z,9.40
2019-04-28T08:24:50.011Z,9.40
2019-04-28T08:27:22.877Z,9.40
2019-04-28T08:29:58.776Z,9.50
2019-04-28T08:32:42.990Z,9.50
2019-04-28T08:35:16.072Z,9.50
2019-04-28T08:37:49.507Z,9.50
2019-04-28T08:40:21.786Z,9.50
2019-04-28T08:42:55.339Z,9.50
2019-04-28T08:45:28.126Z,9.40
2019-04-28T08:48:00.795Z,9.40
2019-04-28T08:50:33.924Z,9.40
2019-04-28T08:53:06.676Z,9.40
2019-04-28T08:55:39.558Z,9.40
2019-04-28T08:58:13.272Z,9.40
2019-04-28T09:00:47.205Z,9.40
2019-04-28T09:03:21.490Z,9.40
2019-04-28T09:05:54.622Z,9.40
2019-04-28T09:08:27.690Z,9.50
2019-04-28T09:11:00.202Z,9.50
2019-04-28T09:13:33.277Z,9.60
2019-04-28T09:16:10.660Z,9.60
2019-04-28T09:18:43.339Z,9.70
2019-04-28T09:21:15.809Z,9.70
2019-04-28T09:23:48.784Z,9.80
2019-04-28T09:26:22.505Z,9.80
2019-04-28T09:28:55.104Z,9.90
2019-04-28T09:31:27.693Z,10.00
2019-04-28T09:34:00.509Z,10.00
2019-04-28T09:36:33.293Z,10.00
2019-04-28T09:39:07.725Z,10.10
2019-04-28T09:41:43.688Z,10.10
2019-04-28T09:44:18.636Z,10.10
2019-04-28T09:46:51.375Z,10.20
2019-04-28T09:49:24.310Z,10.20
2019-04-28T09:51:57.235Z,10.30
2019-04-28T09:54:30.266Z,10.40
2019-04-28T09:57:02.876Z,10.40
2019-04-28T09:59:35.194Z,10.50
2019-04-28T10:02:07.914Z,10.60
2019-04-28T10:04:41.684Z,10.70
2019-04-28T10:07:15.078Z,10.80
2019-04-28T10:09:48.654Z,10.90
2019-04-28T10:12:27.226Z,10.90
2019-04-28T10:14:55.053Z,11.00
2019-04-28T10:17:27.801Z,11.10
2019-04-28T10:20:00.910Z,11.10
2019-04-28T10:22:33.888Z,11.20
2019-04-28T10:25:07.768Z,11.20
2019-04-28T10:27:40.354Z,11.30
2019-04-28T10:30:13.673Z,11.40
2019-04-28T10:32:46.302Z,11.40
2019-04-28T10:35:18.944Z,11.40
2019-04-28T10:37:51.964Z,11.40
2019-04-28T10:40:58.637Z,11.40
2019-04-28T10:43:31.683Z,11.40
2019-04-28T10:46:04.516Z,11.40
2019-04-28T10:48:38.337Z,11.40
2019-04-28T10:51:11.103Z,11.40
2019-04-28T10:53:43.723Z,11.50
2019-04-28T10:56:16.385Z,11.50
2019-04-28T10:58:50.582Z,11.50
2019-04-28T11:01:23.228Z,11.60
2019-04-28T11:03:57.898Z,11.70
2019-04-28T11:06:31.133Z,11.70
2019-04-28T11:09:30.112Z,11.70
2019-04-28T11:11:53.047Z,11.80
2019-04-28T11:14:25.880Z,11.80
2019-04-28T11:17:00.266Z,11.90
2019-04-28T11:19:34.541Z,11.90
2019-04-28T11:22:08.813Z,12.00
2019-04-28T11:24:42.284Z,12.10
2019-04-28T11:27:16.313Z,12.20
2019-04-28T11:29:49.657Z,12.20
2019-04-28T11:32:23.795Z,12.30
2019-04-28T11:35:27.391Z,12.40
2019-04-28T11:38:07.711Z,12.40
2019-04-28T11:40:40.026Z,12.50
2019-04-28T11:43:12.340Z,12.50
2019-04-28T11:45:50.020Z,12.50
2019-04-28T11:48:22.646Z,12.60
2019-04-28T11:50:55.468Z,12.60
2019-04-28T11:53:30.040Z,12.70
2019-04-28T11:56:03.741Z,12.70
2019-04-28T11:58:36.374Z,12.80
2019-04-28T12:01:10.199Z,12.80
2019-04-28T12:03:42.846Z,13.00
2019-04-28T12:06:15.530Z,13.00
2019-04-28T12:08:49.992Z,13.00
2019-04-28T12:11:29.971Z,13.10
2019-04-28T12:14:18.830Z,13.20
2019-04-28T12:17:14.611Z,13.20
2019-04-28T12:19:53.542Z,13.30
2019-04-28T12:22:27.032Z,13.40
2019-04-28T12:25:00.764Z,13.50
2019-04-28T12:27:34.587Z,13.50
2019-04-28T12:30:08.781Z,13.60
2019-04-28T12:32:41.858Z,13.60
2019-04-28T12:35:14.468Z,13.60
2019-04-28T12:37:47.554Z,13.60
2019-04-28T12:40:22.788Z,13.60
2019-04-28T12:42:56.432Z,13.60
2019-04-28T12:45:35.299Z,13.60
2019-04-28T12:48:04.799Z,13.60
2019-04-28T12:50:55.435Z,13.60
2019-04-28T12:53:30.218Z,13.70
2019-04-28T12:56:06.014Z,13.70
2019-04-28T12:58:38.500Z,13.80
2019-04-28T13:01:34.549Z,13.80
2019-04-28T13:04:17.551Z,13.80
2019-04-28T13:07:19.926Z,13.80
2019-04-28T13:09:53.238Z,13.70
2019-04-28T13:12:26.275Z,13.60
2019-04-28T13:14:59.202Z,13.60
2019-04-28T13:17:32.214Z,13.60
2019-04-28T13:20:06.838Z,13.60
2019-04-28T13:22:39.327Z,13.60
2019-04-28T13:25:12.110Z,13.60
2019-04-28T13:27:45.391Z,13.70
2019-04-28T13:30:19.945Z,13.70
2019-04-28T13:32:52.807Z,13.70
2019-04-28T13:35:25.473Z,13.70
2019-04-28T13:37:58.231Z,13.80
2019-04-28T13:40:33.514Z,13.80
2019-04-28T13:43:06.235Z,13.80
2019-04-28T13:45:39.040Z,13.80
2019-04-28T13:48:12.173Z,13.80
2019-04-28T13:50:49.096Z,13.80
2019-04-28T13:53:24.906Z,13.80
2019-04-28T13:56:02.638Z,13.80
2019-04-28T13:58:54.856Z,13.80
2019-04-28T14:01:44.936Z,13.80
2019-04-28T14:04:45.729Z,13.80
2019-04-28T14:07:18.349Z,13.80
2019-04-28T14:09:50.913Z,13.80
2019-04-28T14:12:26.709Z,13.80
2019-04-28T14:15:01.575Z,13.80
2019-04-28T14:17:35.045Z,13.90
2019-04-28T14:20:08.252Z,13.90
2019-04-28T14:22:41.473Z,14.00
2019-04-28T14:25:13.885Z,14.10
2019-04-28T14:27:46.425Z,14.20
2019-04-28T14:30:20.602Z,14.30
2019-04-28T14:32:53.801Z,14.40
2019-04-28T14:35:26.509Z,14.50
2019-04-28T14:37:58.966Z,14.50
2019-04-28T14:40:31.782Z,14.50
2019-04-28T14:43:04.253Z,14.50
2019-04-28T14:45:36.788Z,14.60
2019-04-28T14:48:09.718Z,14.50
2019-04-28T14:50:42.236Z,14.60
2019-04-28T14:53:15.000Z,14.50
2019-04-28T14:55:47.973Z,14.50
2019-04-28T14:58:21.895Z,14.50
2019-04-28T15:01:00.314Z,14.40
2019-04-28T15:03:36.449Z,14.50
2019-04-28T15:06:30.733Z,14.40
2019-04-28T15:09:22.591Z,14.40
2019-04-28T15:12:01.618Z,14.30
2019-04-28T15:14:34.183Z,14.40
2019-04-28T15:17:07.460Z,14.40
2019-04-28T15:19:40.590Z,14.40
2019-04-28T15:22:14.227Z,14.50
2019-04-28T15:24:47.571Z,14.50
2019-04-28T15:27:20.348Z,14.60
2019-04-28T15:29:53.394Z,14.50
2019-04-28T15:32:26.435Z,14.60
2019-04-28T15:34:58.861Z,14.60
2019-04-28T15:37:31.829Z,14.70
2019-04-28T15:40:04.530Z,14.70
2019-04-28T15:42:37.513Z,14.70
2019-04-28T15:45:10.379Z,14.80
2019-04-28T15:47:42.980Z,14.80
2019-04-28T15:50:16.039Z,14.80
2019-04-28T15:52:48.627Z,14.80
2019-04-28T15:55:27.309Z,14.80
2019-04-28T15:58:19.089Z,14.80
2019-04-28T16:00:52.012Z,14.80
2019-04-28T16:03:24.880Z,14.80
2019-04-28T16:05:59.919Z,14.80
2019-04-28T16:08:32.910Z,14.80
2019-04-28T16:11:06.074Z,14.80
2019-04-28T16:13:38.756Z,14.80
2019-04-28T16:16:11.653Z,14.80
2019-04-28T16:18:44.614Z,14.70
2019-04-28T16:21:17.707Z,14.70
2019-04-28T16:23:51.874Z,14.70
2019-04-28T16:26:24.979Z,14.70
2019-04-28T16:28:57.703Z,14.70
2019-04-28T16:31:30.383Z,14.70
2019-04-28T16:34:02.954Z,14.60
2019-04-28T16:36:35.525Z,14.60
2019-04-28T16:39:09.219Z,14.40
2019-04-28T16:41:50.306Z,14.40
2019-04-28T16:44:27.371Z,14.30
2019-04-28T16:47:00.199Z,14.20
2019-04-28T16:49:33.697Z,14.20
2019-04-28T16:52:06.337Z,14.20
2019-04-28T16:54:39.130Z,14.20
2019-04-28T16:57:21.353Z,14.20
2019-04-28T16:59:57.863Z,14.20
2019-04-28T17:02:32.526Z,14.20
2019-04-28T17:05:06.343Z,14.20
2019-04-28T17:07:46.061Z,14.10
2019-04-28T17:10:14.288Z,14.10
2019-04-28T17:12:47.178Z,14.10
2019-04-28T17:15:19.748Z,14.10
2019-04-28T17:17:52.561Z,14.10
2019-04-28T17:20:26.804Z,14.10
2019-04-28T17:22:59.848Z,14.20
2019-04-28T17:25:32.510Z,14.20
2019-04-28T17:28:05.298Z,14.10
2019-04-28T17:30:37.656Z,14.10
2019-04-28T17:33:11.409Z,14.10
2019-04-28T17:35:43.846Z,14.10
2019-04-28T17:38:16.370Z,14.10
2019-04-28T17:40:50.865Z,14.00
2019-04-28T17:43:23.598Z,14.00
2019-04-28T17:45:56.174Z,14.00
2019-04-28T17:48:33.736Z,14.00
2019-04-28T17:51:07.637Z,14.00
2019-04-28T17:53:40.323Z,13.90
2019-04-28T17:56:13.019Z,13.90
2019-04-28T17:58:45.729Z,13.90
2019-04-28T18:01:36.071Z,13.90
2019-04-28T18:04:34.736Z,13.90
2019-04-28T18:07:13.588Z,13.80
2019-04-28T18:09:46.387Z,13.80
2019-04-28T18:12:19.254Z,13.80
2019-04-28T18:14:53.396Z,13.80
2019-04-28T18:17:48.851Z,13.80
2019-04-28T18:20:22.257Z,13.80
2019-04-28T18:22:55.300Z,13.80
2019-04-28T18:25:28.231Z,13.70
2019-04-28T18:28:01.110Z,13.70
2019-04-28T18:30:36.160Z,13.60
2019-04-28T18:33:26.488Z,13.60
2019-04-28T18:36:05.262Z,13.60
2019-04-28T18:38:52.725Z,13.50
2019-04-28T18:41:44.920Z,13.50
2019-04-28T18:44:19.851Z,13.50
2019-04-28T18:46:52.577Z,13.40
2019-04-28T18:49:25.276Z,13.40
2019-04-28T18:51:57.789Z,13.40
2019-04-28T18:54:30.968Z,13.30
2019-04-28T18:57:03.547Z,13.30
2019-04-28T18:59:36.148Z,13.30
2019-04-28T19:02:21.623Z,13.30
2019-04-28T19:04:55.607Z,13.30
2019-04-28T19:07:50.653Z,13.20
2019-04-28T19:10:35.213Z,13.20
2019-04-28T19:13:17.674Z,13.20
2019-04-28T19:16:03.134Z,13.10
2019-04-28T19:18:38.149Z,13.10
2019-04-28T19:21:12.006Z,13.00
2019-04-28T19:23:44.710Z,12.90
2019-04-28T19:26:18.463Z,12.80
2019-04-28T19:28:53.472Z,12.80
2019-04-28T19:31:26.598Z,12.70
2019-04-28T19:34:00.265Z,12.60
2019-04-28T19:36:33.636Z,12.50
2019-04-28T19:39:08.098Z,12.50
2019-04-28T19:41:42.895Z,12.40
2019-04-28T19:44:17.670Z,12.40
2019-04-28T19:46:50.239Z,12.40
2019-04-28T19:49:25.729Z,12.30
2019-04-28T19:51:58.527Z,12.30
2019-04-28T19:54:35.285Z,12.30
2019-04-28T19:57:14.518Z,12.20
2019-04-28T20:00:04.772Z,12.20
2019-04-28T20:02:39.718Z,12.20
2019-04-28T20:05:12.584Z,12.20
2019-04-28T20:07:45.242Z,12.10
2019-04-28T20:10:18.960Z,12.10
2019-04-28T20:12:53.681Z,12.10
2019-04-28T20:15:26.634Z,12.00
2019-04-28T20:17:59.797Z,12.00
2019-04-28T20:20:32.495Z,12.00
2019-04-28T20:23:05.361Z,12.00
2019-04-28T20:25:38.419Z,11.90
2019-04-28T20:28:11.209Z,12.00
2019-04-28T20:30:44.041Z,11.90
2019-04-28T20:33:17.822Z,11.90
2019-04-28T20:36:00.744Z,11.90
2019-04-28T20:38:36.342Z,11.90
2019-04-28T20:41:15.091Z,11.90
2019-04-28T20:43:48.514Z,11.80
2019-04-28T20:46:21.182Z,11.80
2019-04-28T20:48:54.468Z,11.80
2019-04-28T20:51:27.877Z,11.80
2019-04-28T20:54:00.569Z,11.80
2019-04-28T20:56:33.457Z,11.70
2019-04-28T20:59:06.116Z,11.70
2019-04-28T21:01:38.470Z,11.70
2019-04-28T21:04:11.543Z,11.70
2019-04-28T21:06:43.796Z,11.60
2019-04-28T21:09:16.594Z,11.60
2019-04-28T21:11:49.400Z,11.50
2019-04-28T21:14:21.841Z,11.50
2019-04-28T21:16:54.197Z,11.40
2019-04-28T21:19:27.437Z,11.40
2019-04-28T21:22:00.212Z,11.40
2019-04-28T21:24:32.616Z,11.30
2019-04-28T21:27:05.169Z,11.30
2019-04-28T21:29:38.132Z,11.30
2019-04-28T21:32:10.925Z,11.30
2019-04-28T21:34:44.279Z,11.30
2019-04-28T21:37:18.479Z,11.30
2019-04-28T21:39:51.362Z,11.20
2019-04-28T21:42:25.690Z,11.20
2019-04-28T21:45:15.683Z,11.10
2019-04-28T21:47:49.249Z,11.10
2019-04-28T21:50:21.693Z,11.00
2019-04-28T21:52:54.469Z,11.00
2019-04-28T21:55:27.921Z,10.90
2019-04-28T21:58:01.771Z,10.90
2019-04-28T22:00:44.895Z,10.90
2019-04-28T22:03:34.009Z,10.80
2019-04-28T22:06:06.741Z,10.80
2019-04-28T22:08:39.304Z,10.70
2019-04-28T22:11:12.105Z,10.70
2019-04-28T22:13:44.442Z,10.60
2019-04-28T22:16:16.845Z,10.60
2019-04-28T22:18:49.117Z,10.50
2019-04-28T22:21:21.560Z,10.50
2019-04-28T22:24:21.975Z,10.50
2019-04-28T22:26:54.860Z,10.40
2019-04-28T22:29:27.546Z,10.40
2019-04-28T22:32:00.236Z,10.40
2019-04-28T22:34:33.133Z,10.30
2019-04-28T22:37:05.709Z,10.30
2019-04-28T22:39:38.255Z,10.30
2019-04-28T22:42:12.441Z,10.30
2019-04-28T22:44:45.581Z,10.30
2019-04-28T22:47:18.491Z,10.20
2019-04-28T22:49:51.134Z,10.20
2019-04-28T22:52:23.776Z,10.30
2019-04-28T22:55:15.262Z,10.30
2019-04-28T22:58:04.123Z,10.30
2019-04-28T23:00:50.646Z,10.30
2019-04-28T23:03:31.928Z,10.30
2019-04-28T23:06:05.422Z,10.20
2019-04-28T23:08:38.380Z,10.20
2019-04-28T23:11:10.872Z,10.20
2019-04-28T23:13:43.475Z,10.20
2019-04-28T23:16:15.917Z,10.20
2019-04-28T23:18:48.741Z,10.20
2019-04-28T23:21:49.384Z,10.20
2019-04-28T23:24:21.964Z,10.20
2019-04-28T23:26:54.408Z,10.20
2019-04-28T23:29:26.780Z,10.20
2019-04-28T23:31:59.613Z,10.20
2019-04-28T23:34:32.641Z,10.20
2019-04-28T23:37:06.808Z,10.20
2019-04-28T23:39:39.670Z,10.20
2019-04-28T23:42:18.657Z,10.20
2019-04-28T23:44:51.178Z,10.10
2019-04-28T23:47:24.449Z,10.10
2019-04-28T23:49:57.440Z,10.10
2019-04-28T23:52:48.864Z,10.00
2019-04-28T23:55:23.264Z,10.00
2019-04-28T23:57:56.090Z,10.00
